Terminal Aerodrome Forecast
Issued by NWS

Home | Current Version | Previous Version | Text Only | Print | Product List | Glossary On
Versions: 1 2 3 4 5 6 7 8 9 10 11 12 13 14 15 16 17 18 19 20 21 22 23 24 25 26 27 28 29 30 31 32
632
FTUS44 KMAF 170530
TAFCNM
TAF
KCNM 170530Z 1706/1806 32005KT P6SM FEW200
     FM171100 35009KT P6SM OVC009
     FM171600 02006KT P6SM OVC025
     FM180100 25004KT 3SM BR OVC009=

USA.gov is the U.S. government's official web portal to all federal, state and local government web resources and services.